sensor_id;sensor_type;location;lat;lon;timestamp;pressure;altitude;pressure_sealevel;temperature;humidity
76416;BME280;65248;55.686;37.678;2022-12-11T00:02:17;99041.88;;;0.66;91.16
76416;BME280;65248;55.686;37.678;2022-12-11T00:04:42;99025.69;;;0.69;91.55
76416;BME280;65248;55.686;37.678;2022-12-11T00:07:08;99029.66;;;0.65;91.50
76416;BME280;65248;55.686;37.678;2022-12-11T00:09:33;99025.72;;;0.53;90.90
76416;BME280;65248;55.686;37.678;2022-12-11T00:11:59;99066.75;;;0.88;90.82
76416;BME280;65248;55.686;37.678;2022-12-11T00:14:27;99007.59;;;0.50;90.78
76416;BME280;65248;55.686;37.678;2022-12-11T00:16:52;98973.63;;;0.47;91.19
76416;BME280;65248;55.686;37.678;2022-12-11T00:19:18;98985.19;;;0.54;90.94
76416;BME280;65248;55.686;37.678;2022-12-11T00:21:43;98993.75;;;0.56;91.06
76416;BME280;65248;55.686;37.678;2022-12-11T00:24:09;98932.81;;;0.27;91.45
76416;BME280;65248;55.686;37.678;2022-12-11T00:26:37;98949.94;;;0.23;91.21
76416;BME280;65248;55.686;37.678;2022-12-11T00:29:03;99003.97;;;0.67;91.54
76416;BME280;65248;55.686;37.678;2022-12-11T00:31:28;98956.53;;;0.35;91.51
76416;BME280;65248;55.686;37.678;2022-12-11T00:33:54;99040.84;;;0.92;91.61
76416;BME280;65248;55.686;37.678;2022-12-11T00:36:24;99044.28;;;1.00;91.80
76416;BME280;65248;55.686;37.678;2022-12-11T00:38:53;99046.09;;;1.00;92.00
76416;BME280;65248;55.686;37.678;2022-12-11T00:41:19;98908.44;;;0.17;91.79
76416;BME280;65248;55.686;37.678;2022-12-11T00:43:45;99045.78;;;0.95;91.38
76416;BME280;65248;55.686;37.678;2022-12-11T00:46:10;99013.50;;;0.76;91.96
76416;BME280;65248;55.686;37.678;2022-12-11T00:48:44;99001.66;;;0.64;91.54
76416;BME280;65248;55.686;37.678;2022-12-11T00:51:11;98955.69;;;0.42;91.47
76416;BME280;65248;55.686;37.678;2022-12-11T00:53:37;98976.94;;;0.49;91.79
76416;BME280;65248;55.686;37.678;2022-12-11T00:56:14;99008.53;;;0.73;92.06
76416;BME280;65248;55.686;37.678;2022-12-11T00:58:40;99044.94;;;0.94;91.93
76416;BME280;65248;55.686;37.678;2022-12-11T01:01:08;99058.97;;;1.03;91.63
76416;BME280;65248;55.686;37.678;2022-12-11T01:03:34;98952.25;;;0.34;91.89
76416;BME280;65248;55.686;37.678;2022-12-11T01:06:00;99048.75;;;0.83;91.55
76416;BME280;65248;55.686;37.678;2022-12-11T01:08:25;99074.16;;;0.93;91.20
76416;BME280;65248;55.686;37.678;2022-12-11T01:11:09;99080.38;;;1.00;91.73
76416;BME280;65248;55.686;37.678;2022-12-11T01:13:38;99036.06;;;0.79;92.04
76416;BME280;65248;55.686;37.678;2022-12-11T01:16:14;99026.53;;;0.70;92.07
76416;BME280;65248;55.686;37.678;2022-12-11T01:18:41;99056.50;;;0.93;91.99
76416;BME280;65248;55.686;37.678;2022-12-11T01:21:12;99072.66;;;0.98;92.13
76416;BME280;65248;55.686;37.678;2022-12-11T01:23:38;98989.81;;;0.44;91.92
76416;BME280;65248;55.686;37.678;2022-12-11T01:26:12;99026.19;;;0.73;91.94
76416;BME280;65248;55.686;37.678;2022-12-11T01:28:42;99069.69;;;0.85;91.97
76416;BME280;65248;55.686;37.678;2022-12-11T01:31:09;99076.31;;;0.81;92.59
76416;BME280;65248;55.686;37.678;2022-12-11T01:33:35;99044.66;;;0.49;91.88
76416;BME280;65248;55.686;37.678;2022-12-11T01:36:09;98973.34;;;0.10;92.53
76416;BME280;65248;55.686;37.678;2022-12-11T01:38:40;98886.91;;;-0.35;92.65
76416;BME280;65248;55.686;37.678;2022-12-11T01:41:12;98878.66;;;-0.40;92.38
76416;BME280;65248;55.686;37.678;2022-12-11T01:46:22;99021.78;;;0.25;92.76
76416;BME280;65248;55.686;37.678;2022-12-11T01:48:48;99004.31;;;0.40;92.66
76416;BME280;65248;55.686;37.678;2022-12-11T01:51:13;99034.94;;;0.57;92.79
76416;BME280;65248;55.686;37.678;2022-12-11T01:53:46;99048.28;;;0.64;92.69
76416;BME280;65248;55.686;37.678;2022-12-11T01:56:13;99027.53;;;0.45;92.48
76416;BME280;65248;55.686;37.678;2022-12-11T01:58:41;98979.63;;;0.25;92.67
76416;BME280;65248;55.686;37.678;2022-12-11T02:01:15;98982.09;;;0.10;92.62
76416;BME280;65248;55.686;37.678;2022-12-11T02:03:45;99055.38;;;0.23;92.41
76416;BME280;65248;55.686;37.678;2022-12-11T02:06:30;99042.84;;;0.09;92.47
76416;BME280;65248;55.686;37.678;2022-12-11T02:08:56;99036.13;;;0.30;93.23
76416;BME280;65248;55.686;37.678;2022-12-11T02:11:25;99050.28;;;0.29;93.59
76416;BME280;65248;55.686;37.678;2022-12-11T02:14:15;99071.53;;;0.44;93.00
76416;BME280;65248;55.686;37.678;2022-12-11T02:17:34;99020.94;;;0.32;93.45
76416;BME280;65248;55.686;37.678;2022-12-11T02:19:47;99091.97;;;0.58;93.14
76416;BME280;65248;55.686;37.678;2022-12-11T02:22:27;99061.00;;;0.36;93.27
76416;BME280;65248;55.686;37.678;2022-12-11T02:25:14;99105.97;;;0.59;93.29
76416;BME280;65248;55.686;37.678;2022-12-11T02:28:00;99056.19;;;0.23;93.51
76416;BME280;65248;55.686;37.678;2022-12-11T02:30:26;99074.94;;;0.12;93.00
76416;BME280;65248;55.686;37.678;2022-12-11T02:32:55;99095.88;;;0.22;93.37
76416;BME280;65248;55.686;37.678;2022-12-11T02:35:25;99026.22;;;-0.50;93.00
76416;BME280;65248;55.686;37.678;2022-12-11T02:38:00;99076.66;;;-0.29;92.95
76416;BME280;65248;55.686;37.678;2022-12-11T02:40:31;99084.66;;;0.04;93.30
76416;BME280;65248;55.686;37.678;2022-12-11T02:43:02;99131.50;;;0.26;93.19
76416;BME280;65248;55.686;37.678;2022-12-11T02:45:29;99050.19;;;-0.27;93.54
76416;BME280;65248;55.686;37.678;2022-12-11T02:47:57;99101.09;;;0.06;93.65
76416;BME280;65248;55.686;37.678;2022-12-11T02:50:25;99092.88;;;0.00;93.41
76416;BME280;65248;55.686;37.678;2022-12-11T02:52:54;99117.97;;;0.29;93.77
76416;BME280;65248;55.686;37.678;2022-12-11T02:55:22;98998.19;;;-0.67;92.76
76416;BME280;65248;55.686;37.678;2022-12-11T02:57:58;99102.94;;;0.13;93.53
76416;BME280;65248;55.686;37.678;2022-12-11T03:00:26;99120.56;;;0.05;93.72
76416;BME280;65248;55.686;37.678;2022-12-11T03:02:52;99082.66;;;-0.11;93.91
76416;BME280;65248;55.686;37.678;2022-12-11T03:05:18;99120.72;;;0.11;93.72
76416;BME280;65248;55.686;37.678;2022-12-11T03:07:44;99123.53;;;0.10;94.23
76416;BME280;65248;55.686;37.678;2022-12-11T03:10:12;99079.00;;;-0.18;93.93
76416;BME280;65248;55.686;37.678;2022-12-11T03:12:42;99103.41;;;0.00;93.83
76416;BME280;65248;55.686;37.678;2022-12-11T03:15:12;99122.50;;;-0.06;93.60
76416;BME280;65248;55.686;37.678;2022-12-11T03:28:26;99052.28;;;-0.31;93.59
76416;BME280;65248;55.686;37.678;2022-12-11T03:30:53;99066.47;;;-0.24;93.58
76416;BME280;65248;55.686;37.678;2022-12-11T03:33:33;99084.94;;;-0.08;93.57
76416;BME280;65248;55.686;37.678;2022-12-11T03:36:08;99113.16;;;0.00;93.46
76416;BME280;65248;55.686;37.678;2022-12-11T03:38:46;99087.25;;;-0.13;93.47
76416;BME280;65248;55.686;37.678;2022-12-11T03:41:21;98935.78;;;-0.99;93.23
76416;BME280;65248;55.686;37.678;2022-12-11T03:43:52;99184.41;;;0.40;93.66
76416;BME280;65248;55.686;37.678;2022-12-11T03:46:22;99029.00;;;-0.60;92.96
76416;BME280;65248;55.686;37.678;2022-12-11T03:52:00;99085.72;;;-0.65;93.27
76416;BME280;65248;55.686;37.678;2022-12-11T03:54:27;99137.97;;;-0.11;93.81
76416;BME280;65248;55.686;37.678;2022-12-11T03:57:03;99136.53;;;-0.31;93.63
76416;BME280;65248;55.686;37.678;2022-12-11T03:59:33;99142.56;;;-0.05;94.08
76416;BME280;65248;55.686;37.678;2022-12-11T04:01:58;99146.22;;;-0.06;93.55
76416;BME280;65248;55.686;37.678;2022-12-11T04:04:31;99135.34;;;-0.03;93.77
76416;BME280;65248;55.686;37.678;2022-12-11T04:06:57;99160.03;;;-0.04;94.09
76416;BME280;65248;55.686;37.678;2022-12-11T04:09:25;99154.81;;;-0.29;93.35
76416;BME280;65248;55.686;37.678;2022-12-11T04:11:54;99177.53;;;-0.28;93.93
76416;BME280;65248;55.686;37.678;2022-12-11T04:14:23;99142.47;;;-0.37;93.91
76416;BME280;65248;55.686;37.678;2022-12-11T04:17:10;99203.88;;;-0.54;93.32
76416;BME280;65248;55.686;37.678;2022-12-11T04:19:39;99141.44;;;-0.96;93.68
76416;BME280;65248;55.686;37.678;2022-12-11T04:22:23;99103.56;;;-1.03;94.24
76416;BME280;65248;55.686;37.678;2022-12-11T04:25:07;99122.00;;;-1.03;94.26
76416;BME280;65248;55.686;37.678;2022-12-11T04:27:33;99090.03;;;-1.34;94.29
76416;BME280;65248;55.686;37.678;2022-12-11T04:30:21;99225.47;;;-0.51;94.40
76416;BME280;65248;55.686;37.678;2022-12-11T04:32:48;65906.91;;;-143.74;100.00
76416;BME280;65248;55.686;37.678;2022-12-11T04:35:20;65906.91;;;-143.74;100.00
76416;BME280;65248;55.686;37.678;2022-12-11T04:37:46;65906.91;;;-143.74;100.00
76416;BME280;65248;55.686;37.678;2022-12-11T04:40:15;65906.91;;;-143.74;100.00
76416;BME280;65248;55.686;37.678;2022-12-11T04:42:47;65906.91;;;-143.74;100.00
76416;BME280;65248;55.686;37.678;2022-12-11T04:45:13;65906.91;;;-143.74;100.00
76416;BME280;65248;55.686;37.678;2022-12-11T04:47:39;65906.91;;;-143.74;100.00
76416;BME280;65248;55.686;37.678;2022-12-11T04:50:10;65906.91;;;-143.74;100.00
76416;BME280;65248;55.686;37.678;2022-12-11T04:52:36;65906.91;;;-143.74;100.00
76416;BME280;65248;55.686;37.678;2022-12-11T04:55:06;65906.91;;;-143.74;100.00
76416;BME280;65248;55.686;37.678;2022-12-11T04:57:32;65906.91;;;-143.74;100.00
76416;BME280;65248;55.686;37.678;2022-12-11T04:59:57;65906.91;;;-143.74;100.00
76416;BME280;65248;55.686;37.678;2022-12-11T05:02:24;65906.91;;;-143.74;100.00
76416;BME280;65248;55.686;37.678;2022-12-11T05:04:50;65906.91;;;-143.74;100.00
76416;BME280;65248;55.686;37.678;2022-12-11T05:07:16;65906.91;;;-143.74;100.00
76416;BME280;65248;55.686;37.678;2022-12-11T05:09:42;65906.91;;;-143.74;100.00
76416;BME280;65248;55.686;37.678;2022-12-11T05:12:07;65906.91;;;-143.74;100.00
76416;BME280;65248;55.686;37.678;2022-12-11T05:14:33;65906.91;;;-143.74;100.00
76416;BME280;65248;55.686;37.678;2022-12-11T05:16:58;65906.91;;;-143.74;100.00
76416;BME280;65248;55.686;37.678;2022-12-11T05:19:24;65906.91;;;-143.74;100.00
76416;BME280;65248;55.686;37.678;2022-12-11T05:21:50;65906.91;;;-143.74;100.00
76416;BME280;65248;55.686;37.678;2022-12-11T05:24:15;65906.91;;;-143.74;100.00
76416;BME280;65248;55.686;37.678;2022-12-11T05:26:41;65906.91;;;-143.74;100.00
76416;BME280;65248;55.686;37.678;2022-12-11T05:29:06;65906.91;;;-143.74;100.00
76416;BME280;65248;55.686;37.678;2022-12-11T05:31:32;65906.91;;;-143.74;100.00
76416;BME280;65248;55.686;37.678;2022-12-11T05:33:57;65906.91;;;-143.74;100.00
76416;BME280;65248;55.686;37.678;2022-12-11T05:36:28;65906.91;;;-143.74;100.00
76416;BME280;65248;55.686;37.678;2022-12-11T05:38:54;65906.91;;;-143.74;100.00
76416;BME280;65248;55.686;37.678;2022-12-11T05:41:23;65906.91;;;-143.74;100.00
76416;BME280;65248;55.686;37.678;2022-12-11T05:43:49;65906.91;;;-143.74;100.00
76416;BME280;65248;55.686;37.678;2022-12-11T05:46:17;65906.91;;;-143.74;100.00
76416;BME280;65248;55.686;37.678;2022-12-11T05:48:44;65906.91;;;-143.74;100.00
76416;BME280;65248;55.686;37.678;2022-12-11T05:51:11;65906.91;;;-143.74;100.00
76416;BME280;65248;55.686;37.678;2022-12-11T05:53:38;65906.91;;;-143.74;100.00
76416;BME280;65248;55.686;37.678;2022-12-11T05:56:16;65906.91;;;-143.74;100.00
76416;BME280;65248;55.686;37.678;2022-12-11T05:58:43;65906.91;;;-143.74;100.00
76416;BME280;65248;55.686;37.678;2022-12-11T06:01:11;65906.91;;;-143.74;100.00
76416;BME280;65248;55.686;37.678;2022-12-11T06:03:37;65906.91;;;-143.74;100.00
76416;BME280;65248;55.686;37.678;2022-12-11T06:06:04;65906.91;;;-143.74;100.00
76416;BME280;65248;55.686;37.678;2022-12-11T06:08:30;65906.91;;;-143.74;100.00
76416;BME280;65248;55.686;37.678;2022-12-11T06:10:56;65906.91;;;-143.74;100.00
76416;BME280;65248;55.686;37.678;2022-12-11T06:13:22;65906.91;;;-143.74;100.00
76416;BME280;65248;55.686;37.678;2022-12-11T06:15:48;65906.91;;;-143.74;100.00
76416;BME280;65248;55.686;37.678;2022-12-11T06:18:13;65906.91;;;-143.74;100.00
76416;BME280;65248;55.686;37.678;2022-12-11T06:20:39;65906.91;;;-143.74;100.00
76416;BME280;65248;55.686;37.678;2022-12-11T06:23:04;65906.91;;;-143.74;100.00
76416;BME280;65248;55.686;37.678;2022-12-11T06:25:30;65906.91;;;-143.74;100.00
76416;BME280;65248;55.686;37.678;2022-12-11T06:27:56;65906.91;;;-143.74;100.00
76416;BME280;65248;55.686;37.678;2022-12-11T06:30:22;65906.91;;;-143.74;100.00
76416;BME280;65248;55.686;37.678;2022-12-11T06:32:47;65906.91;;;-143.74;100.00
76416;BME280;65248;55.686;37.678;2022-12-11T06:35:13;65906.91;;;-143.74;100.00
76416;BME280;65248;55.686;37.678;2022-12-11T06:37:39;65906.91;;;-143.74;100.00
76416;BME280;65248;55.686;37.678;2022-12-11T06:40:06;65906.91;;;-143.74;100.00
76416;BME280;65248;55.686;37.678;2022-12-11T06:42:32;65906.91;;;-143.74;100.00
76416;BME280;65248;55.686;37.678;2022-12-11T06:44:57;65906.91;;;-143.74;100.00
76416;BME280;65248;55.686;37.678;2022-12-11T06:47:27;65906.91;;;-143.74;100.00
76416;BME280;65248;55.686;37.678;2022-12-11T06:49:54;65906.91;;;-143.74;100.00
76416;BME280;65248;55.686;37.678;2022-12-11T06:52:20;65906.91;;;-143.74;100.00
76416;BME280;65248;55.686;37.678;2022-12-11T06:54:46;65906.91;;;-143.74;100.00
76416;BME280;65248;55.686;37.678;2022-12-11T06:57:11;65906.91;;;-143.74;100.00
76416;BME280;65248;55.686;37.678;2022-12-11T06:59:37;65906.91;;;-143.74;100.00
76416;BME280;65248;55.686;37.678;2022-12-11T07:02:03;65906.91;;;-143.74;100.00
76416;BME280;65248;55.686;37.678;2022-12-11T07:04:29;65906.91;;;-143.74;100.00
76416;BME280;65248;55.686;37.678;2022-12-11T07:06:55;65906.91;;;-143.74;100.00
76416;BME280;65248;55.686;37.678;2022-12-11T07:09:22;65906.91;;;-143.74;100.00
76416;BME280;65248;55.686;37.678;2022-12-11T07:11:51;65906.91;;;-143.74;100.00
76416;BME280;65248;55.686;37.678;2022-12-11T07:14:18;65906.91;;;-143.74;100.00
76416;BME280;65248;55.686;37.678;2022-12-11T07:16:43;65906.91;;;-143.74;100.00
76416;BME280;65248;55.686;37.678;2022-12-11T07:19:09;65906.91;;;-143.74;100.00
76416;BME280;65248;55.686;37.678;2022-12-11T07:21:35;65906.91;;;-143.74;100.00
76416;BME280;65248;55.686;37.678;2022-12-11T07:24:00;65906.91;;;-143.74;100.00
76416;BME280;65248;55.686;37.678;2022-12-11T07:26:26;65906.91;;;-143.74;100.00
76416;BME280;65248;55.686;37.678;2022-12-11T07:28:51;65906.91;;;-143.74;100.00
76416;BME280;65248;55.686;37.678;2022-12-11T07:31:20;65906.91;;;-143.74;100.00
76416;BME280;65248;55.686;37.678;2022-12-11T07:33:47;65906.91;;;-143.74;100.00
76416;BME280;65248;55.686;37.678;2022-12-11T07:36:16;65906.91;;;-143.74;100.00
76416;BME280;65248;55.686;37.678;2022-12-11T07:38:42;65906.91;;;-143.74;100.00
76416;BME280;65248;55.686;37.678;2022-12-11T07:41:10;65906.91;;;-143.74;100.00
76416;BME280;65248;55.686;37.678;2022-12-11T07:43:36;65906.91;;;-143.74;100.00
76416;BME280;65248;55.686;37.678;2022-12-11T07:46:06;65906.91;;;-143.74;100.00
76416;BME280;65248;55.686;37.678;2022-12-11T07:48:36;65906.91;;;-143.74;100.00
76416;BME280;65248;55.686;37.678;2022-12-11T07:53:41;65906.91;;;-143.74;100.00
76416;BME280;65248;55.686;37.678;2022-12-11T07:56:06;65906.91;;;-143.74;100.00
76416;BME280;65248;55.686;37.678;2022-12-11T07:58:32;65906.91;;;-143.74;100.00
76416;BME280;65248;55.686;37.678;2022-12-11T08:00:58;65906.91;;;-143.74;100.00
76416;BME280;65248;55.686;37.678;2022-12-11T08:03:24;65906.91;;;-143.74;100.00
76416;BME280;65248;55.686;37.678;2022-12-11T08:05:50;65906.91;;;-143.74;100.00
76416;BME280;65248;55.686;37.678;2022-12-11T08:08:16;65906.91;;;-143.74;100.00
76416;BME280;65248;55.686;37.678;2022-12-11T08:10:42;65906.91;;;-143.74;100.00
76416;BME280;65248;55.686;37.678;2022-12-11T08:13:08;65906.91;;;-143.74;100.00
76416;BME280;65248;55.686;37.678;2022-12-11T08:15:34;65906.91;;;-143.74;100.00
76416;BME280;65248;55.686;37.678;2022-12-11T08:18:00;65906.91;;;-143.74;100.00
76416;BME280;65248;55.686;37.678;2022-12-11T08:20:26;65906.91;;;-143.74;100.00
76416;BME280;65248;55.686;37.678;2022-12-11T08:22:51;65906.91;;;-143.74;100.00
76416;BME280;65248;55.686;37.678;2022-12-11T08:25:17;65906.91;;;-143.74;100.00
76416;BME280;65248;55.686;37.678;2022-12-11T08:27:42;65906.91;;;-143.74;100.00
76416;BME280;65248;55.686;37.678;2022-12-11T08:30:09;65906.91;;;-143.74;100.00
76416;BME280;65248;55.686;37.678;2022-12-11T08:32:34;65906.91;;;-143.74;100.00
76416;BME280;65248;55.686;37.678;2022-12-11T08:35:00;65906.91;;;-143.74;100.00
76416;BME280;65248;55.686;37.678;2022-12-11T08:37:25;65906.91;;;-143.74;100.00
76416;BME280;65248;55.686;37.678;2022-12-11T08:39:51;65906.91;;;-143.74;100.00
76416;BME280;65248;55.686;37.678;2022-12-11T08:42:16;65906.91;;;-143.74;100.00
76416;BME280;65248;55.686;37.678;2022-12-11T08:44:42;65906.91;;;-143.74;100.00
76416;BME280;65248;55.686;37.678;2022-12-11T08:47:07;65906.91;;;-143.74;100.00
76416;BME280;65248;55.686;37.678;2022-12-11T08:49:36;65906.91;;;-143.74;100.00
76416;BME280;65248;55.686;37.678;2022-12-11T08:52:03;65906.91;;;-143.74;100.00
76416;BME280;65248;55.686;37.678;2022-12-11T08:54:29;65906.91;;;-143.74;100.00
76416;BME280;65248;55.686;37.678;2022-12-11T08:56:55;65906.91;;;-143.74;100.00
76416;BME280;65248;55.686;37.678;2022-12-11T08:59:20;65906.91;;;-143.74;100.00
76416;BME280;65248;55.686;37.678;2022-12-11T09:01:49;65906.91;;;-143.74;100.00
76416;BME280;65248;55.686;37.678;2022-12-11T09:04:22;65906.91;;;-143.74;100.00
76416;BME280;65248;55.686;37.678;2022-12-11T09:06:48;65906.91;;;-143.74;100.00
76416;BME280;65248;55.686;37.678;2022-12-11T09:09:14;65906.91;;;-143.74;100.00
76416;BME280;65248;55.686;37.678;2022-12-11T09:11:40;65906.91;;;-143.74;100.00
76416;BME280;65248;55.686;37.678;2022-12-11T09:14:06;65906.91;;;-143.74;100.00
76416;BME280;65248;55.686;37.678;2022-12-11T09:16:32;65906.91;;;-143.74;100.00
76416;BME280;65248;55.686;37.678;2022-12-11T09:18:58;65906.91;;;-143.74;100.00
76416;BME280;65248;55.686;37.678;2022-12-11T09:21:27;65906.91;;;-143.74;100.00
76416;BME280;65248;55.686;37.678;2022-12-11T09:23:55;65906.91;;;-143.74;100.00
76416;BME280;65248;55.686;37.678;2022-12-11T09:26:21;65906.91;;;-143.74;100.00
76416;BME280;65248;55.686;37.678;2022-12-11T09:28:47;65906.91;;;-143.74;100.00
76416;BME280;65248;55.686;37.678;2022-12-11T09:31:18;65906.91;;;-143.74;100.00
76416;BME280;65248;55.686;37.678;2022-12-11T09:33:44;65906.91;;;-143.74;100.00
76416;BME280;65248;55.686;37.678;2022-12-11T09:36:11;65906.91;;;-143.74;100.00
76416;BME280;65248;55.686;37.678;2022-12-11T09:38:37;65906.91;;;-143.74;100.00
76416;BME280;65248;55.686;37.678;2022-12-11T09:46:27;65906.91;;;-143.74;100.00
76416;BME280;65248;55.686;37.678;2022-12-11T09:48:53;65906.91;;;-143.74;100.00
76416;BME280;65248;55.686;37.678;2022-12-11T09:51:29;65906.91;;;-143.74;100.00
76416;BME280;65248;55.686;37.678;2022-12-11T09:54:00;65906.91;;;-143.74;100.00
76416;BME280;65248;55.686;37.678;2022-12-11T09:57:58;65906.91;;;-143.74;100.00
76416;BME280;65248;55.686;37.678;2022-12-11T10:00:12;65906.91;;;-143.74;100.00
76416;BME280;65248;55.686;37.678;2022-12-11T10:03:01;65906.91;;;-143.74;100.00
76416;BME280;65248;55.686;37.678;2022-12-11T10:08:14;65906.91;;;-143.74;100.00
76416;BME280;65248;55.686;37.678;2022-12-11T10:14:07;65906.91;;;-143.74;100.00
76416;BME280;65248;55.686;37.678;2022-12-11T10:16:46;65906.91;;;-143.74;100.00
76416;BME280;65248;55.686;37.678;2022-12-11T10:19:17;65906.91;;;-143.74;100.00
76416;BME280;65248;55.686;37.678;2022-12-11T10:21:44;65906.91;;;-143.74;100.00
76416;BME280;65248;55.686;37.678;2022-12-11T10:24:36;65906.91;;;-143.74;100.00
76416;BME280;65248;55.686;37.678;2022-12-11T10:27:31;65906.91;;;-143.74;100.00
76416;BME280;65248;55.686;37.678;2022-12-11T10:30:21;65906.91;;;-143.74;100.00
76416;BME280;65248;55.686;37.678;2022-12-11T10:33:17;65906.91;;;-143.74;100.00
76416;BME280;65248;55.686;37.678;2022-12-11T10:41:19;65906.91;;;-143.74;100.00
76416;BME280;65248;55.686;37.678;2022-12-11T10:43:50;65906.91;;;-143.74;100.00
76416;BME280;65248;55.686;37.678;2022-12-11T10:46:22;65906.91;;;-143.74;100.00
76416;BME280;65248;55.686;37.678;2022-12-11T10:48:56;65906.91;;;-143.74;100.00
76416;BME280;65248;55.686;37.678;2022-12-11T10:54:05;65906.91;;;-143.74;100.00
76416;BME280;65248;55.686;37.678;2022-12-11T10:56:34;65906.91;;;-143.74;100.00
76416;BME280;65248;55.686;37.678;2022-12-11T10:59:02;65906.91;;;-143.74;100.00
76416;BME280;65248;55.686;37.678;2022-12-11T11:01:30;65906.91;;;-143.74;100.00
76416;BME280;65248;55.686;37.678;2022-12-11T11:04:03;65906.91;;;-143.74;100.00
76416;BME280;65248;55.686;37.678;2022-12-11T11:06:31;65906.91;;;-143.74;100.00
76416;BME280;65248;55.686;37.678;2022-12-11T11:08:58;65906.91;;;-143.74;100.00
76416;BME280;65248;55.686;37.678;2022-12-11T11:11:26;65906.91;;;-143.74;100.00
76416;BME280;65248;55.686;37.678;2022-12-11T11:14:04;65906.91;;;-143.74;100.00
76416;BME280;65248;55.686;37.678;2022-12-11T11:16:30;65906.91;;;-143.74;100.00
76416;BME280;65248;55.686;37.678;2022-12-11T11:18:56;65906.91;;;-143.74;100.00
76416;BME280;65248;55.686;37.678;2022-12-11T11:21:24;65906.91;;;-143.74;100.00
76416;BME280;65248;55.686;37.678;2022-12-11T11:23:52;65906.91;;;-143.74;100.00
76416;BME280;65248;55.686;37.678;2022-12-11T11:26:19;65906.91;;;-143.74;100.00
76416;BME280;65248;55.686;37.678;2022-12-11T11:28:48;65906.91;;;-143.74;100.00
76416;BME280;65248;55.686;37.678;2022-12-11T11:31:16;65906.91;;;-143.74;100.00
76416;BME280;65248;55.686;37.678;2022-12-11T11:36:22;65906.91;;;-143.74;100.00
76416;BME280;65248;55.686;37.678;2022-12-11T11:38:49;65906.91;;;-143.74;100.00
76416;BME280;65248;55.686;37.678;2022-12-11T11:41:51;65906.91;;;-143.74;100.00
76416;BME280;65248;55.686;37.678;2022-12-11T11:44:29;65906.91;;;-143.74;100.00
76416;BME280;65248;55.686;37.678;2022-12-11T11:47:01;65906.91;;;-143.74;100.00
76416;BME280;65248;55.686;37.678;2022-12-11T11:50:07;65906.91;;;-143.74;100.00
76416;BME280;65248;55.686;37.678;2022-12-11T11:52:50;65906.91;;;-143.74;100.00
76416;BME280;65248;55.686;37.678;2022-12-11T12:00:27;65906.91;;;-143.74;100.00
76416;BME280;65248;55.686;37.678;2022-12-11T12:03:11;65906.91;;;-143.74;100.00
76416;BME280;65248;55.686;37.678;2022-12-11T12:27:39;65906.91;;;-143.74;100.00
76416;BME280;65248;55.686;37.678;2022-12-11T12:30:11;65906.91;;;-143.74;100.00
76416;BME280;65248;55.686;37.678;2022-12-11T12:36:13;65906.91;;;-143.74;100.00
76416;BME280;65248;55.686;37.678;2022-12-11T12:38:59;65906.91;;;-143.74;100.00
76416;BME280;65248;55.686;37.678;2022-12-11T12:44:14;65906.91;;;-143.74;100.00
76416;BME280;65248;55.686;37.678;2022-12-11T12:47:07;65906.91;;;-143.74;100.00
76416;BME280;65248;55.686;37.678;2022-12-11T12:49:39;65906.91;;;-143.74;100.00
76416;BME280;65248;55.686;37.678;2022-12-11T12:54:46;65906.91;;;-143.74;100.00
76416;BME280;65248;55.686;37.678;2022-12-11T12:57:34;65906.91;;;-143.74;100.00
76416;BME280;65248;55.686;37.678;2022-12-11T13:00:03;65906.91;;;-143.74;100.00
76416;BME280;65248;55.686;37.678;2022-12-11T13:02:31;65906.91;;;-143.74;100.00
76416;BME280;65248;55.686;37.678;2022-12-11T13:05:04;65906.91;;;-143.74;100.00
76416;BME280;65248;55.686;37.678;2022-12-11T13:07:32;65906.91;;;-143.74;100.00
76416;BME280;65248;55.686;37.678;2022-12-11T13:10:06;65906.91;;;-143.74;100.00
76416;BME280;65248;55.686;37.678;2022-12-11T13:12:46;65906.91;;;-143.74;100.00
76416;BME280;65248;55.686;37.678;2022-12-11T13:15:26;65906.91;;;-143.74;100.00
76416;BME280;65248;55.686;37.678;2022-12-11T13:17:52;65906.91;;;-143.74;100.00
76416;BME280;65248;55.686;37.678;2022-12-11T13:20:20;65906.91;;;-143.74;100.00
76416;BME280;65248;55.686;37.678;2022-12-11T13:25:44;65906.91;;;-143.74;100.00
76416;BME280;65248;55.686;37.678;2022-12-11T13:29:25;65906.91;;;-143.74;100.00
76416;BME280;65248;55.686;37.678;2022-12-11T13:33:42;65906.91;;;-143.74;100.00
76416;BME280;65248;55.686;37.678;2022-12-11T13:38:36;65906.91;;;-143.74;100.00
76416;BME280;65248;55.686;37.678;2022-12-11T13:41:09;65906.91;;;-143.74;100.00
76416;BME280;65248;55.686;37.678;2022-12-11T13:43:37;65906.91;;;-143.74;100.00
76416;BME280;65248;55.686;37.678;2022-12-11T13:46:06;65906.91;;;-143.74;100.00
76416;BME280;65248;55.686;37.678;2022-12-11T13:51:16;65906.91;;;-143.74;100.00
76416;BME280;65248;55.686;37.678;2022-12-11T13:53:45;65906.91;;;-143.74;100.00
76416;BME280;65248;55.686;37.678;2022-12-11T13:56:21;65906.91;;;-143.74;100.00
76416;BME280;65248;55.686;37.678;2022-12-11T13:58:47;65906.91;;;-143.74;100.00
76416;BME280;65248;55.686;37.678;2022-12-11T14:01:21;65906.91;;;-143.74;100.00
76416;BME280;65248;55.686;37.678;2022-12-11T14:06:23;65906.91;;;-143.74;100.00
76416;BME280;65248;55.686;37.678;2022-12-11T14:08:52;65906.91;;;-143.74;100.00
76416;BME280;65248;55.686;37.678;2022-12-11T14:11:32;65906.91;;;-143.74;100.00
76416;BME280;65248;55.686;37.678;2022-12-11T14:14:00;65906.91;;;-143.74;100.00
76416;BME280;65248;55.686;37.678;2022-12-11T14:16:28;65906.91;;;-143.74;100.00
76416;BME280;65248;55.686;37.678;2022-12-11T14:19:00;65906.91;;;-143.74;100.00